Duque Bacelar, Brazil
Current Conditions -  °F | °C
As of 1:00 AM on Tuesday 23 Dec 2014 (Local Time) from SBTE Reporting Station
Clear Clear  
Wind Chill: 79°   Ceiling: Unl
Heat Index: 82°   Visibility: 6mi
Dew Point: 72°   Wind: 8mph
Humidity: 78%   Direction: 320°NW
Pressure: 29.83"   Gusts: NA
Location:  4.29°S, 42.99°W
Report Text: SBTE 230400Z 32007KT CAVOK 26/22 Q1010
Loading
Personal Weather Stations






























Interactive Weather Map New forecast layout! Learn more

10-Day Weather Forecast

Advertisements
Track Severe Weather on mobile